ADDS METAR Data

Data at: 0258 UTC 21 Jun 2018

METAR for:KLAX (Los Angeles Intl, CA, US)
Text:KLAX 210253Z 26008KT 8SM OVC010 18/15 A2992 RMK AO2 SLP130 T01830150 53009
Temperature: 18.3°C ( 65°F)
Dewpoint: 15.0°C ( 59°F) [RH = 81%]
Pressure (altimeter):29.92 inches Hg (1013.3 mb) [Sea level pressure: 1013.0 mb]
Winds:from the W (260 degrees) at 9 MPH (8 knots; 4.1 m/s)
Visibility: 8 sm ( 13 km)
Ceiling:1000 feet AGL
Clouds: overcast cloud deck at 1000 feet AGL